Xin Barag Youqi, China
Current Conditions -  °F | °C
As of 2:00 AM on Sunday 26 Oct 2014 (Local Time) from UIAA Reporting Station
Clear Clear  
Wind Chill: -2°   Ceiling: Unl
Heat Index: 10°   Visibility: 6mi
Dew Point: -2°   Wind: 9mph
Humidity: 57%   Direction: 340°NNW
Pressure: 30.42"   Gusts: NA
Location:  48.67°N, 116.82°E
Report Text: UIAA 251800Z 34004MPS 9999 SKC M12/M19 Q1030 NOSIG RMK QFE71429CLRD70
Loading
Personal Weather Stations






























Interactive Weather Map
Tropical Storm Tracking
New forecast layout! Learn more

10-Day Weather Forecast

Advertisements
Track Severe Weather on mobile